sensor_id;sensor_type;location;lat;lon;timestamp;temperature;humidity
67186;HTU21D;54116;53.518;49.398;2023-04-25T00:02:10;-5.20;118.99
67186;HTU21D;54116;53.518;49.398;2023-04-25T00:04:36;-5.16;118.99
67186;HTU21D;54116;53.518;49.398;2023-04-25T00:07:03;-5.26;118.99
67186;HTU21D;54116;53.518;49.398;2023-04-25T00:09:30;-5.19;118.99
67186;HTU21D;54116;53.518;49.398;2023-04-25T00:11:56;-5.14;118.99
67186;HTU21D;54116;53.518;49.398;2023-04-25T00:14:25;-5.12;118.99
67186;HTU21D;54116;53.518;49.398;2023-04-25T00:16:53;-5.12;118.99
67186;HTU21D;54116;53.518;49.398;2023-04-25T00:19:20;-5.10;118.99
67186;HTU21D;54116;53.518;49.398;2023-04-25T00:21:46;-5.11;118.99
67186;HTU21D;54116;53.518;49.398;2023-04-25T00:24:12;-5.12;118.99
67186;HTU21D;54116;53.518;49.398;2023-04-25T00:26:39;-5.08;118.99
67186;HTU21D;54116;53.518;49.398;2023-04-25T00:29:05;-5.13;118.99
67186;HTU21D;54116;53.518;49.398;2023-04-25T00:31:31;-5.10;118.99
67186;HTU21D;54116;53.518;49.398;2023-04-25T00:33:57;-5.09;118.99
67186;HTU21D;54116;53.518;49.398;2023-04-25T00:36:23;-5.10;118.99
67186;HTU21D;54116;53.518;49.398;2023-04-25T00:38:49;-5.10;118.99
67186;HTU21D;54116;53.518;49.398;2023-04-25T00:41:15;-4.99;118.99
67186;HTU21D;54116;53.518;49.398;2023-04-25T00:43:41;-5.11;118.99
67186;HTU21D;54116;53.518;49.398;2023-04-25T00:46:08;-5.01;118.99
67186;HTU21D;54116;53.518;49.398;2023-04-25T00:48:34;-5.10;118.99
67186;HTU21D;54116;53.518;49.398;2023-04-25T00:51:00;-5.03;118.99
67186;HTU21D;54116;53.518;49.398;2023-04-25T00:53:27;-5.01;118.99
67186;HTU21D;54116;53.518;49.398;2023-04-25T00:55:54;-5.04;118.99
67186;HTU21D;54116;53.518;49.398;2023-04-25T00:58:21;-5.04;118.99
67186;HTU21D;54116;53.518;49.398;2023-04-25T01:00:49;-5.09;118.99
67186;HTU21D;54116;53.518;49.398;2023-04-25T01:03:16;-5.10;118.99
67186;HTU21D;54116;53.518;49.398;2023-04-25T01:05:43;-5.08;118.99
67186;HTU21D;54116;53.518;49.398;2023-04-25T01:08:09;-5.02;118.99
67186;HTU21D;54116;53.518;49.398;2023-04-25T01:10:36;-4.99;118.99
67186;HTU21D;54116;53.518;49.398;2023-04-25T01:13:03;-4.97;118.99
67186;HTU21D;54116;53.518;49.398;2023-04-25T01:15:29;-4.98;118.99
67186;HTU21D;54116;53.518;49.398;2023-04-25T01:17:55;-4.91;118.99
67186;HTU21D;54116;53.518;49.398;2023-04-25T01:20:22;-4.83;118.99
67186;HTU21D;54116;53.518;49.398;2023-04-25T01:22:52;-4.80;118.99
67186;HTU21D;54116;53.518;49.398;2023-04-25T01:25:19;-4.80;118.99
67186;HTU21D;54116;53.518;49.398;2023-04-25T01:27:46;-4.81;118.99
67186;HTU21D;54116;53.518;49.398;2023-04-25T01:30:13;-4.83;118.99
67186;HTU21D;54116;53.518;49.398;2023-04-25T01:32:40;-4.93;118.99
67186;HTU21D;54116;53.518;49.398;2023-04-25T01:35:09;-4.90;118.99
67186;HTU21D;54116;53.518;49.398;2023-04-25T01:37:42;-4.93;118.99
67186;HTU21D;54116;53.518;49.398;2023-04-25T01:40:10;-4.90;118.99
67186;HTU21D;54116;53.518;49.398;2023-04-25T01:42:39;-4.90;118.99
67186;HTU21D;54116;53.518;49.398;2023-04-25T01:45:06;-4.94;118.99
67186;HTU21D;54116;53.518;49.398;2023-04-25T01:47:33;-4.85;118.99
67186;HTU21D;54116;53.518;49.398;2023-04-25T01:50:02;-4.89;118.99
67186;HTU21D;54116;53.518;49.398;2023-04-25T01:52:29;-4.86;118.99
67186;HTU21D;54116;53.518;49.398;2023-04-25T01:54:57;-4.84;118.99
67186;HTU21D;54116;53.518;49.398;2023-04-25T01:57:23;-4.79;118.99
67186;HTU21D;54116;53.518;49.398;2023-04-25T01:59:49;-4.76;118.99
67186;HTU21D;54116;53.518;49.398;2023-04-25T02:02:16;-4.78;118.99
67186;HTU21D;54116;53.518;49.398;2023-04-25T02:04:42;-4.72;118.99
67186;HTU21D;54116;53.518;49.398;2023-04-25T02:07:08;-4.76;118.99
67186;HTU21D;54116;53.518;49.398;2023-04-25T02:09:34;-4.64;118.99
67186;HTU21D;54116;53.518;49.398;2023-04-25T02:12:00;-4.78;118.99
67186;HTU21D;54116;53.518;49.398;2023-04-25T02:14:27;-4.72;118.99
67186;HTU21D;54116;53.518;49.398;2023-04-25T02:16:54;-4.73;118.99
67186;HTU21D;54116;53.518;49.398;2023-04-25T02:19:25;-4.74;118.99
67186;HTU21D;54116;53.518;49.398;2023-04-25T02:21:51;-4.74;118.99
67186;HTU21D;54116;53.518;49.398;2023-04-25T02:24:17;-4.75;118.99
67186;HTU21D;54116;53.518;49.398;2023-04-25T02:26:43;-4.60;118.99
67186;HTU21D;54116;53.518;49.398;2023-04-25T02:29:10;-4.68;118.99
67186;HTU21D;54116;53.518;49.398;2023-04-25T02:31:36;-4.61;118.99
67186;HTU21D;54116;53.518;49.398;2023-04-25T02:34:02;-4.63;118.99
67186;HTU21D;54116;53.518;49.398;2023-04-25T02:36:28;-4.64;118.99
67186;HTU21D;54116;53.518;49.398;2023-04-25T02:38:57;-4.65;118.99
67186;HTU21D;54116;53.518;49.398;2023-04-25T02:41:23;-4.61;118.99
67186;HTU21D;54116;53.518;49.398;2023-04-25T02:43:51;-4.50;118.99
67186;HTU21D;54116;53.518;49.398;2023-04-25T02:46:18;-4.51;118.99
67186;HTU21D;54116;53.518;49.398;2023-04-25T02:48:44;-4.56;118.99
67186;HTU21D;54116;53.518;49.398;2023-04-25T02:51:10;-4.56;118.99
67186;HTU21D;54116;53.518;49.398;2023-04-25T02:53:36;-4.55;118.99
67186;HTU21D;54116;53.518;49.398;2023-04-25T02:56:02;-4.39;118.99
67186;HTU21D;54116;53.518;49.398;2023-04-25T02:58:28;-4.40;118.99
67186;HTU21D;54116;53.518;49.398;2023-04-25T03:00:55;-4.43;118.99
67186;HTU21D;54116;53.518;49.398;2023-04-25T03:03:21;-4.41;118.99
67186;HTU21D;54116;53.518;49.398;2023-04-25T03:05:52;-4.45;118.99
67186;HTU21D;54116;53.518;49.398;2023-04-25T03:08:18;-4.46;118.99
67186;HTU21D;54116;53.518;49.398;2023-04-25T03:10:45;-4.35;118.99
67186;HTU21D;54116;53.518;49.398;2023-04-25T03:13:11;-4.36;118.99
67186;HTU21D;54116;53.518;49.398;2023-04-25T03:15:38;-4.32;118.99
67186;HTU21D;54116;53.518;49.398;2023-04-25T03:18:04;-4.31;118.99
67186;HTU21D;54116;53.518;49.398;2023-04-25T03:20:30;-4.25;118.99
67186;HTU21D;54116;53.518;49.398;2023-04-25T03:22:57;-4.29;118.99
67186;HTU21D;54116;53.518;49.398;2023-04-25T03:25:23;-4.32;118.99
67186;HTU21D;54116;53.518;49.398;2023-04-25T03:27:49;-4.31;118.99
67186;HTU21D;54116;53.518;49.398;2023-04-25T03:30:15;-4.29;118.99
67186;HTU21D;54116;53.518;49.398;2023-04-25T03:32:41;-4.35;118.99
67186;HTU21D;54116;53.518;49.398;2023-04-25T03:35:07;-4.35;118.99
67186;HTU21D;54116;53.518;49.398;2023-04-25T03:37:34;-4.37;118.99
67186;HTU21D;54116;53.518;49.398;2023-04-25T03:40:00;-4.31;118.99
67186;HTU21D;54116;53.518;49.398;2023-04-25T03:42:26;-4.29;118.99
67186;HTU21D;54116;53.518;49.398;2023-04-25T03:44:52;-4.26;118.99
67186;HTU21D;54116;53.518;49.398;2023-04-25T03:47:18;-4.28;118.99
67186;HTU21D;54116;53.518;49.398;2023-04-25T03:49:45;-4.30;118.99
67186;HTU21D;54116;53.518;49.398;2023-04-25T03:52:11;-4.22;118.99
67186;HTU21D;54116;53.518;49.398;2023-04-25T03:54:37;-4.25;118.99
67186;HTU21D;54116;53.518;49.398;2023-04-25T03:57:04;-4.20;118.99
67186;HTU21D;54116;53.518;49.398;2023-04-25T03:59:30;-4.22;118.99
67186;HTU21D;54116;53.518;49.398;2023-04-25T04:01:57;-4.19;118.99
67186;HTU21D;54116;53.518;49.398;2023-04-25T04:04:23;-4.15;118.99
67186;HTU21D;54116;53.518;49.398;2023-04-25T04:06:49;-4.12;118.99
67186;HTU21D;54116;53.518;49.398;2023-04-25T04:09:21;-4.08;118.99
67186;HTU21D;54116;53.518;49.398;2023-04-25T04:11:47;-4.06;118.99
67186;HTU21D;54116;53.518;49.398;2023-04-25T04:14:14;-4.04;118.99
67186;HTU21D;54116;53.518;49.398;2023-04-25T04:16:40;-4.04;118.99
67186;HTU21D;54116;53.518;49.398;2023-04-25T04:19:06;-4.06;118.99
67186;HTU21D;54116;53.518;49.398;2023-04-25T04:21:33;-3.99;118.99
67186;HTU21D;54116;53.518;49.398;2023-04-25T04:23:59;-3.97;118.99
67186;HTU21D;54116;53.518;49.398;2023-04-25T04:26:26;-3.87;118.99
67186;HTU21D;54116;53.518;49.398;2023-04-25T04:28:53;-3.76;118.99
67186;HTU21D;54116;53.518;49.398;2023-04-25T04:31:23;-3.76;118.99
67186;HTU21D;54116;53.518;49.398;2023-04-25T04:36:52;-3.36;118.99
67186;HTU21D;54116;53.518;49.398;2023-04-25T04:39:19;-3.28;118.99
67186;HTU21D;54116;53.518;49.398;2023-04-25T04:41:46;-3.40;118.99
67186;HTU21D;54116;53.518;49.398;2023-04-25T04:44:12;-3.47;118.99
67186;HTU21D;54116;53.518;49.398;2023-04-25T04:46:40;-3.51;118.99
67186;HTU21D;54116;53.518;49.398;2023-04-25T04:49:10;-3.49;118.99
67186;HTU21D;54116;53.518;49.398;2023-04-25T04:51:55;-3.37;118.99
67186;HTU21D;54116;53.518;49.398;2023-04-25T04:54:26;-3.43;118.99
67186;HTU21D;54116;53.518;49.398;2023-04-25T04:56:52;-3.46;118.99
67186;HTU21D;54116;53.518;49.398;2023-04-25T04:59:18;-3.39;118.99
67186;HTU21D;54116;53.518;49.398;2023-04-25T05:01:45;-3.35;118.99
67186;HTU21D;54116;53.518;49.398;2023-04-25T05:04:12;-3.28;118.99
67186;HTU21D;54116;53.518;49.398;2023-04-25T05:06:38;-3.16;118.99
67186;HTU21D;54116;53.518;49.398;2023-04-25T05:09:04;-2.90;118.99
67186;HTU21D;54116;53.518;49.398;2023-04-25T05:11:30;-2.75;118.99
67186;HTU21D;54116;53.518;49.398;2023-04-25T05:13:57;-2.78;118.99
67186;HTU21D;54116;53.518;49.398;2023-04-25T05:16:28;-2.86;118.99
67186;HTU21D;54116;53.518;49.398;2023-04-25T05:18:54;-2.77;118.99
67186;HTU21D;54116;53.518;49.398;2023-04-25T05:21:25;-2.77;118.99
67186;HTU21D;54116;53.518;49.398;2023-04-25T05:23:56;-2.91;118.99
67186;HTU21D;54116;53.518;49.398;2023-04-25T05:26:22;-3.03;118.99
67186;HTU21D;54116;53.518;49.398;2023-04-25T05:28:53;-3.04;118.99
67186;HTU21D;54116;53.518;49.398;2023-04-25T05:34:28;-2.65;118.99
67186;HTU21D;54116;53.518;49.398;2023-04-25T05:36:54;-2.80;118.99
67186;HTU21D;54116;53.518;49.398;2023-04-25T05:39:21;-2.87;118.99
67186;HTU21D;54116;53.518;49.398;2023-04-25T05:41:47;-2.84;118.99
67186;HTU21D;54116;53.518;49.398;2023-04-25T05:44:13;-2.64;118.99
67186;HTU21D;54116;53.518;49.398;2023-04-25T05:46:39;-2.52;118.99
67186;HTU21D;54116;53.518;49.398;2023-04-25T05:49:29;-2.49;118.99
67186;HTU21D;54116;53.518;49.398;2023-04-25T05:51:55;-2.48;118.99
67186;HTU21D;54116;53.518;49.398;2023-04-25T05:54:21;-2.42;118.99
67186;HTU21D;54116;53.518;49.398;2023-04-25T05:56:52;-2.28;118.99
67186;HTU21D;54116;53.518;49.398;2023-04-25T05:59:37;-2.19;118.99
67186;HTU21D;54116;53.518;49.398;2023-04-25T06:02:03;-2.29;118.99
67186;HTU21D;54116;53.518;49.398;2023-04-25T06:04:29;-2.28;118.99
67186;HTU21D;54116;53.518;49.398;2023-04-25T06:06:55;-2.21;118.99
67186;HTU21D;54116;53.518;49.398;2023-04-25T06:12:06;-1.74;118.99
67186;HTU21D;54116;53.518;49.398;2023-04-25T06:14:33;-1.63;118.99
67186;HTU21D;54116;53.518;49.398;2023-04-25T06:16:59;-1.78;118.99
67186;HTU21D;54116;53.518;49.398;2023-04-25T06:22:17;-1.95;118.99
67186;HTU21D;54116;53.518;49.398;2023-04-25T06:24:43;-1.92;118.99
67186;HTU21D;54116;53.518;49.398;2023-04-25T06:27:09;-1.98;118.99
67186;HTU21D;54116;53.518;49.398;2023-04-25T06:29:35;-2.04;118.99
67186;HTU21D;54116;53.518;49.398;2023-04-25T06:32:20;-2.06;118.99
67186;HTU21D;54116;53.518;49.398;2023-04-25T06:34:46;-1.98;118.99
67186;HTU21D;54116;53.518;49.398;2023-04-25T06:37:17;-1.90;118.99
67186;HTU21D;54116;53.518;49.398;2023-04-25T06:39:48;-1.97;118.99
67186;HTU21D;54116;53.518;49.398;2023-04-25T06:44:59;-2.10;118.99
67186;HTU21D;54116;53.518;49.398;2023-04-25T06:47:25;-2.02;118.99
67186;HTU21D;54116;53.518;49.398;2023-04-25T06:49:52;-2.09;118.99
67186;HTU21D;54116;53.518;49.398;2023-04-25T06:52:18;-2.16;118.99
67186;HTU21D;54116;53.518;49.398;2023-04-25T06:54:44;-2.22;118.99
67186;HTU21D;54116;53.518;49.398;2023-04-25T06:57:11;-2.13;118.99
67186;HTU21D;54116;53.518;49.398;2023-04-25T06:59:42;-2.12;118.99
67186;HTU21D;54116;53.518;49.398;2023-04-25T07:02:09;-2.15;118.99
67186;HTU21D;54116;53.518;49.398;2023-04-25T07:04:35;-2.28;118.99
67186;HTU21D;54116;53.518;49.398;2023-04-25T07:07:02;-2.28;118.99
67186;HTU21D;54116;53.518;49.398;2023-04-25T07:09:29;-2.36;118.99
67186;HTU21D;54116;53.518;49.398;2023-04-25T07:12:01;-2.53;118.99
67186;HTU21D;54116;53.518;49.398;2023-04-25T07:14:27;-2.48;118.99
67186;HTU21D;54116;53.518;49.398;2023-04-25T07:16:54;-2.44;118.99
67186;HTU21D;54116;53.518;49.398;2023-04-25T07:19:23;-2.32;118.99
67186;HTU21D;54116;53.518;49.398;2023-04-25T07:21:52;-2.32;118.99
67186;HTU21D;54116;53.518;49.398;2023-04-25T07:24:24;-2.38;118.99
67186;HTU21D;54116;53.518;49.398;2023-04-25T07:26:50;-2.33;118.99
67186;HTU21D;54116;53.518;49.398;2023-04-25T07:29:16;-2.36;118.99
67186;HTU21D;54116;53.518;49.398;2023-04-25T07:31:42;-2.31;118.99
67186;HTU21D;54116;53.518;49.398;2023-04-25T07:34:09;-2.29;118.99
67186;HTU21D;54116;53.518;49.398;2023-04-25T07:36:36;-2.19;118.99
67186;HTU21D;54116;53.518;49.398;2023-04-25T07:39:02;-2.20;118.99
67186;HTU21D;54116;53.518;49.398;2023-04-25T07:41:47;-2.08;118.99
67186;HTU21D;54116;53.518;49.398;2023-04-25T07:44:18;-2.05;118.99
67186;HTU21D;54116;53.518;49.398;2023-04-25T07:46:45;-2.10;118.99
67186;HTU21D;54116;53.518;49.398;2023-04-25T07:51:55;-2.10;118.99
67186;HTU21D;54116;53.518;49.398;2023-04-25T07:54:21;-2.13;118.99
67186;HTU21D;54116;53.518;49.398;2023-04-25T07:56:53;-2.23;118.99
67186;HTU21D;54116;53.518;49.398;2023-04-25T07:59:37;-2.29;118.99
67186;HTU21D;54116;53.518;49.398;2023-04-25T08:02:03;-2.24;118.99
67186;HTU21D;54116;53.518;49.398;2023-04-25T08:04:29;-2.18;118.99
67186;HTU21D;54116;53.518;49.398;2023-04-25T08:09:45;-2.15;118.99
67186;HTU21D;54116;53.518;49.398;2023-04-25T08:12:11;-2.12;118.99
67186;HTU21D;54116;53.518;49.398;2023-04-25T08:14:37;-2.14;118.99
67186;HTU21D;54116;53.518;49.398;2023-04-25T08:17:05;-2.08;118.99
67186;HTU21D;54116;53.518;49.398;2023-04-25T08:19:31;-2.13;118.99
67186;HTU21D;54116;53.518;49.398;2023-04-25T08:21:57;-2.07;118.99
67186;HTU21D;54116;53.518;49.398;2023-04-25T08:24:23;-1.88;118.99
67186;HTU21D;54116;53.518;49.398;2023-04-25T08:26:49;-1.95;118.99
67186;HTU21D;54116;53.518;49.398;2023-04-25T08:29:15;-2.00;118.99
67186;HTU21D;54116;53.518;49.398;2023-04-25T08:31:42;-2.08;118.99
67186;HTU21D;54116;53.518;49.398;2023-04-25T08:34:08;-2.00;118.99
67186;HTU21D;54116;53.518;49.398;2023-04-25T08:36:52;-2.13;118.99
67186;HTU21D;54116;53.518;49.398;2023-04-25T08:39:18;-2.03;118.99
67186;HTU21D;54116;53.518;49.398;2023-04-25T08:41:46;-2.03;118.99
67186;HTU21D;54116;53.518;49.398;2023-04-25T08:44:13;-1.93;118.99
67186;HTU21D;54116;53.518;49.398;2023-04-25T08:46:40;-1.97;118.99
67186;HTU21D;54116;53.518;49.398;2023-04-25T08:49:07;-2.00;118.99
67186;HTU21D;54116;53.518;49.398;2023-04-25T08:51:46;-2.04;118.99
67186;HTU21D;54116;53.518;49.398;2023-04-25T08:54:14;-2.03;118.99
67186;HTU21D;54116;53.518;49.398;2023-04-25T08:56:47;-2.02;118.99
67186;HTU21D;54116;53.518;49.398;2023-04-25T08:59:18;-2.01;118.99
67186;HTU21D;54116;53.518;49.398;2023-04-25T09:01:45;-2.10;118.99
67186;HTU21D;54116;53.518;49.398;2023-04-25T09:04:12;-2.04;118.99
67186;HTU21D;54116;53.518;49.398;2023-04-25T09:07:02;-2.04;118.99
67186;HTU21D;54116;53.518;49.398;2023-04-25T09:09:29;-2.06;118.99
67186;HTU21D;54116;53.518;49.398;2023-04-25T09:11:59;-1.91;118.99
67186;HTU21D;54116;53.518;49.398;2023-04-25T09:14:27;-1.86;118.99
67186;HTU21D;54116;53.518;49.398;2023-04-25T09:21:49;-1.74;118.99
67186;HTU21D;54116;53.518;49.398;2023-04-25T09:24:16;-1.77;118.99
67186;HTU21D;54116;53.518;49.398;2023-04-25T09:26:42;-1.77;118.99
67186;HTU21D;54116;53.518;49.398;2023-04-25T09:29:09;-1.76;118.99
67186;HTU21D;54116;53.518;49.398;2023-04-25T09:34:41;-1.89;118.99
67186;HTU21D;54116;53.518;49.398;2023-04-25T09:37:11;-1.90;118.99
67186;HTU21D;54116;53.518;49.398;2023-04-25T09:39:38;-1.99;118.99
67186;HTU21D;54116;53.518;49.398;2023-04-25T09:42:09;-1.93;118.99
67186;HTU21D;54116;53.518;49.398;2023-04-25T09:44:35;-1.90;118.99
67186;HTU21D;54116;53.518;49.398;2023-04-25T09:47:02;-1.97;118.99
67186;HTU21D;54116;53.518;49.398;2023-04-25T09:49:28;-2.05;118.99
67186;HTU21D;54116;53.518;49.398;2023-04-25T09:51:59;-2.12;118.99
67186;HTU21D;54116;53.518;49.398;2023-04-25T09:54:26;-2.15;118.99
67186;HTU21D;54116;53.518;49.398;2023-04-25T09:56:53;-2.15;118.99
67186;HTU21D;54116;53.518;49.398;2023-04-25T09:59:21;-2.14;118.99
67186;HTU21D;54116;53.518;49.398;2023-04-25T10:02:08;-2.20;118.99
67186;HTU21D;54116;53.518;49.398;2023-04-25T10:04:35;-2.16;118.99
67186;HTU21D;54116;53.518;49.398;2023-04-25T10:07:06;-2.39;118.99
67186;HTU21D;54116;53.518;49.398;2023-04-25T10:09:33;-2.50;118.99
67186;HTU21D;54116;53.518;49.398;2023-04-25T10:12:00;-2.51;118.99
67186;HTU21D;54116;53.518;49.398;2023-04-25T10:14:26;-2.54;118.99
67186;HTU21D;54116;53.518;49.398;2023-04-25T10:16:54;-2.56;118.99
67186;HTU21D;54116;53.518;49.398;2023-04-25T10:19:21;-2.52;118.99
67186;HTU21D;54116;53.518;49.398;2023-04-25T10:22:13;-2.60;118.99
67186;HTU21D;54116;53.518;49.398;2023-04-25T10:24:46;-2.74;118.99
67186;HTU21D;54116;53.518;49.398;2023-04-25T10:27:32;-2.79;118.99
67186;HTU21D;54116;53.518;49.398;2023-04-25T10:30:10;-2.93;118.99
67186;HTU21D;54116;53.518;49.398;2023-04-25T10:32:44;-2.95;118.99
67186;HTU21D;54116;53.518;49.398;2023-04-25T10:35:30;-2.93;118.99
67186;HTU21D;54116;53.518;49.398;2023-04-25T10:38:03;-3.00;118.99
67186;HTU21D;54116;53.518;49.398;2023-04-25T10:40:33;-2.96;118.99
67186;HTU21D;54116;53.518;49.398;2023-04-25T10:45:59;-3.02;118.99
67186;HTU21D;54116;53.518;49.398;2023-04-25T10:48:27;-2.86;118.99
67186;HTU21D;54116;53.518;49.398;2023-04-25T10:51:19;-2.91;118.99
67186;HTU21D;54116;53.518;49.398;2023-04-25T10:53:46;-2.97;118.99
67186;HTU21D;54116;53.518;49.398;2023-04-25T10:56:31;-3.06;118.99
67186;HTU21D;54116;53.518;49.398;2023-04-25T10:59:12;-2.96;118.99
67186;HTU21D;54116;53.518;49.398;2023-04-25T11:01:39;-3.06;118.99
67186;HTU21D;54116;53.518;49.398;2023-04-25T11:04:05;-3.03;118.99
67186;HTU21D;54116;53.518;49.398;2023-04-25T11:06:55;-3.03;118.99
67186;HTU21D;54116;53.518;49.398;2023-04-25T11:09:24;-3.04;118.99
67186;HTU21D;54116;53.518;49.398;2023-04-25T11:11:54;-3.04;118.99
67186;HTU21D;54116;53.518;49.398;2023-04-25T11:14:21;-2.96;118.99
67186;HTU21D;54116;53.518;49.398;2023-04-25T11:16:53;-3.08;118.99
67186;HTU21D;54116;53.518;49.398;2023-04-25T11:19:22;-3.18;118.99
67186;HTU21D;54116;53.518;49.398;2023-04-25T11:21:48;-3.20;118.99
67186;HTU21D;54116;53.518;49.398;2023-04-25T11:24:15;-3.08;118.99
67186;HTU21D;54116;53.518;49.398;2023-04-25T11:26:42;-3.04;118.99
67186;HTU21D;54116;53.518;49.398;2023-04-25T11:29:08;-3.10;118.99
67186;HTU21D;54116;53.518;49.398;2023-04-25T11:31:35;-3.11;118.99
67186;HTU21D;54116;53.518;49.398;2023-04-25T11:34:04;-3.07;118.99
67186;HTU21D;54116;53.518;49.398;2023-04-25T11:36:30;-3.06;118.99
67186;HTU21D;54116;53.518;49.398;2023-04-25T11:39:02;-3.19;118.99
67186;HTU21D;54116;53.518;49.398;2023-04-25T11:41:28;-3.21;118.99
67186;HTU21D;54116;53.518;49.398;2023-04-25T11:46:39;-3.32;118.99
67186;HTU21D;54116;53.518;49.398;2023-04-25T11:49:05;-3.33;118.99
67186;HTU21D;54116;53.518;49.398;2023-04-25T11:51:50;-3.34;118.99
67186;HTU21D;54116;53.518;49.398;2023-04-25T11:54:17;-3.37;118.99
67186;HTU21D;54116;53.518;49.398;2023-04-25T11:56:45;-3.45;118.99
67186;HTU21D;54116;53.518;49.398;2023-04-25T11:59:12;-3.49;118.99
67186;HTU21D;54116;53.518;49.398;2023-04-25T12:01:40;-3.45;118.99
67186;HTU21D;54116;53.518;49.398;2023-04-25T12:04:18;-3.53;118.99
67186;HTU21D;54116;53.518;49.398;2023-04-25T12:06:48;-3.55;118.99
67186;HTU21D;54116;53.518;49.398;2023-04-25T12:09:18;-3.54;118.99
67186;HTU21D;54116;53.518;49.398;2023-04-25T12:11:46;-3.54;118.99
67186;HTU21D;54116;53.518;49.398;2023-04-25T12:14:21;-3.51;118.99
67186;HTU21D;54116;53.518;49.398;2023-04-25T12:16:48;-3.40;118.99
67186;HTU21D;54116;53.518;49.398;2023-04-25T12:22:21;-3.61;118.99
67186;HTU21D;54116;53.518;49.398;2023-04-25T12:24:48;-3.63;118.99
67186;HTU21D;54116;53.518;49.398;2023-04-25T12:27:40;-3.65;118.99
67186;HTU21D;54116;53.518;49.398;2023-04-25T12:30:09;-3.63;118.99
67186;HTU21D;54116;53.518;49.398;2023-04-25T12:32:36;-3.69;118.99
67186;HTU21D;54116;53.518;49.398;2023-04-25T12:35:05;-3.60;118.99
67186;HTU21D;54116;53.518;49.398;2023-04-25T12:37:32;-3.62;118.99
67186;HTU21D;54116;53.518;49.398;2023-04-25T12:39:58;-3.64;118.99
67186;HTU21D;54116;53.518;49.398;2023-04-25T12:42:25;-3.74;118.99
67186;HTU21D;54116;53.518;49.398;2023-04-25T12:44:51;-3.82;118.99
67186;HTU21D;54116;53.518;49.398;2023-04-25T12:47:17;-3.87;118.99
67186;HTU21D;54116;53.518;49.398;2023-04-25T12:49:43;-3.87;118.99
67186;HTU21D;54116;53.518;49.398;2023-04-25T12:52:10;-3.90;118.99
67186;HTU21D;54116;53.518;49.398;2023-04-25T12:54:36;-3.96;118.99
67186;HTU21D;54116;53.518;49.398;2023-04-25T12:57:02;-3.98;118.99
67186;HTU21D;54116;53.518;49.398;2023-04-25T12:59:47;-3.92;118.99
67186;HTU21D;54116;53.518;49.398;2023-04-25T13:02:13;-4.01;118.99
67186;HTU21D;54116;53.518;49.398;2023-04-25T13:07:27;-4.09;118.99
67186;HTU21D;54116;53.518;49.398;2023-04-25T13:09:53;-4.09;118.99
67186;HTU21D;54116;53.518;49.398;2023-04-25T13:12:19;-4.13;118.99
67186;HTU21D;54116;53.518;49.398;2023-04-25T13:14:45;-4.13;118.99
67186;HTU21D;54116;53.518;49.398;2023-04-25T13:17:11;-4.16;118.99
67186;HTU21D;54116;53.518;49.398;2023-04-25T13:19:42;-4.08;118.99
67186;HTU21D;54116;53.518;49.398;2023-04-25T13:22:08;-4.09;118.99
67186;HTU21D;54116;53.518;49.398;2023-04-25T13:24:34;-4.07;118.99
67186;HTU21D;54116;53.518;49.398;2023-04-25T13:27:00;-4.21;118.99
67186;HTU21D;54116;53.518;49.398;2023-04-25T13:29:27;-4.14;118.99
67186;HTU21D;54116;53.518;49.398;2023-04-25T13:31:53;-4.12;118.99
67186;HTU21D;54116;53.518;49.398;2023-04-25T13:34:37;-4.12;118.99
67186;HTU21D;54116;53.518;49.398;2023-04-25T13:37:03;-4.13;118.99
67186;HTU21D;54116;53.518;49.398;2023-04-25T13:39:30;-4.04;118.99
67186;HTU21D;54116;53.518;49.398;2023-04-25T13:41:57;-4.15;118.99
67186;HTU21D;54116;53.518;49.398;2023-04-25T13:44:23;-4.08;118.99
67186;HTU21D;54116;53.518;49.398;2023-04-25T13:46:50;-4.21;118.99
67186;HTU21D;54116;53.518;49.398;2023-04-25T13:49:16;-4.20;118.99
67186;HTU21D;54116;53.518;49.398;2023-04-25T13:52:01;-4.24;118.99
67186;HTU21D;54116;53.518;49.398;2023-04-25T13:54:27;-4.26;118.99
67186;HTU21D;54116;53.518;49.398;2023-04-25T13:56:54;-4.32;118.99
67186;HTU21D;54116;53.518;49.398;2023-04-25T13:59:39;-4.35;118.99
67186;HTU21D;54116;53.518;49.398;2023-04-25T14:02:06;-4.43;118.99
67186;HTU21D;54116;53.518;49.398;2023-04-25T14:04:33;-4.41;118.99
67186;HTU21D;54116;53.518;49.398;2023-04-25T14:07:18;-4.41;118.99
67186;HTU21D;54116;53.518;49.398;2023-04-25T14:10:03;-4.46;118.99
67186;HTU21D;54116;53.518;49.398;2023-04-25T14:12:32;-4.51;118.99
67186;HTU21D;54116;53.518;49.398;2023-04-25T14:14:58;-4.53;118.99
67186;HTU21D;54116;53.518;49.398;2023-04-25T14:17:24;-4.53;118.99
67186;HTU21D;54116;53.518;49.398;2023-04-25T14:19:51;-4.55;118.99
67186;HTU21D;54116;53.518;49.398;2023-04-25T14:22:17;-4.58;118.99
67186;HTU21D;54116;53.518;49.398;2023-04-25T14:24:43;-4.74;118.99
67186;HTU21D;54116;53.518;49.398;2023-04-25T14:27:09;-4.75;118.99
67186;HTU21D;54116;53.518;49.398;2023-04-25T14:29:36;-4.71;118.99
67186;HTU21D;54116;53.518;49.398;2023-04-25T14:32:20;-4.70;118.99
67186;HTU21D;54116;53.518;49.398;2023-04-25T14:34:47;-4.72;118.99
67186;HTU21D;54116;53.518;49.398;2023-04-25T14:37:13;-4.68;118.99
67186;HTU21D;54116;53.518;49.398;2023-04-25T14:39:39;-4.74;118.99
67186;HTU21D;54116;53.518;49.398;2023-04-25T14:42:05;-4.87;118.99
67186;HTU21D;54116;53.518;49.398;2023-04-25T14:44:31;-4.88;118.99
67186;HTU21D;54116;53.518;49.398;2023-04-25T14:46:57;-4.86;118.99
67186;HTU21D;54116;53.518;49.398;2023-04-25T14:49:23;-4.93;118.99
67186;HTU21D;54116;53.518;49.398;2023-04-25T14:51:50;-4.95;118.99
67186;HTU21D;54116;53.518;49.398;2023-04-25T14:54:35;-4.97;118.99
67186;HTU21D;54116;53.518;49.398;2023-04-25T14:57:02;-5.04;118.99
67186;HTU21D;54116;53.518;49.398;2023-04-25T14:59:28;-4.94;118.99
67186;HTU21D;54116;53.518;49.398;2023-04-25T15:01:55;-5.05;118.99
67186;HTU21D;54116;53.518;49.398;2023-04-25T15:04:22;-5.02;118.99
67186;HTU21D;54116;53.518;49.398;2023-04-25T15:06:48;-5.08;118.99
67186;HTU21D;54116;53.518;49.398;2023-04-25T15:09:14;-4.99;118.99
67186;HTU21D;54116;53.518;49.398;2023-04-25T15:11:42;-5.01;118.99
67186;HTU21D;54116;53.518;49.398;2023-04-25T15:14:08;-5.07;118.99
67186;HTU21D;54116;53.518;49.398;2023-04-25T15:16:53;-5.10;118.99
67186;HTU21D;54116;53.518;49.398;2023-04-25T15:19:20;-5.08;118.99
67186;HTU21D;54116;53.518;49.398;2023-04-25T15:21:46;-5.09;118.99
67186;HTU21D;54116;53.518;49.398;2023-04-25T15:24:13;-5.09;118.99
67186;HTU21D;54116;53.518;49.398;2023-04-25T15:26:40;-5.10;118.99
67186;HTU21D;54116;53.518;49.398;2023-04-25T15:29:06;-5.11;118.99
67186;HTU21D;54116;53.518;49.398;2023-04-25T15:31:32;-5.04;118.99
67186;HTU21D;54116;53.518;49.398;2023-04-25T15:34:17;-5.04;118.99
67186;HTU21D;54116;53.518;49.398;2023-04-25T15:37:02;-5.02;118.99